sensor_id;sensor_type;location;lat;lon;timestamp;pressure;altitude;pressure_sealevel;temperature;humidity
53868;BME280;41577;47.470;19.080;2023-11-22T00:00:08;99950.75;;;4.27;100.00
53868;BME280;41577;47.470;19.080;2023-11-22T00:00:20;99943.66;;;4.28;100.00
53868;BME280;41577;47.470;19.080;2023-11-22T00:00:32;99946.44;;;4.26;100.00
53868;BME280;41577;47.470;19.080;2023-11-22T00:00:44;99941.84;;;4.28;100.00
53868;BME280;41577;47.470;19.080;2023-11-22T00:00:56;99945.47;;;4.27;100.00
53868;BME280;41577;47.470;19.080;2023-11-22T00:01:10;99942.16;;;4.25;100.00
53868;BME280;41577;47.470;19.080;2023-11-22T00:01:22;99943.66;;;4.28;100.00
53868;BME280;41577;47.470;19.080;2023-11-22T00:01:34;99940.19;;;4.27;100.00
53868;BME280;41577;47.470;19.080;2023-11-22T00:01:48;99951.59;;;4.28;100.00
53868;BME280;41577;47.470;19.080;2023-11-22T00:02:00;99943.66;;;4.28;100.00
53868;BME280;41577;47.470;19.080;2023-11-22T00:02:12;99943.66;;;4.28;100.00
53868;BME280;41577;47.470;19.080;2023-11-22T00:02:23;99946.31;;;4.28;100.00
53868;BME280;41577;47.470;19.080;2023-11-22T00:02:35;99944.47;;;4.28;100.00
53868;BME280;41577;47.470;19.080;2023-11-22T00:02:47;99944.47;;;4.28;100.00
53868;BME280;41577;47.470;19.080;2023-11-22T00:02:59;99944.47;;;4.28;100.00
53868;BME280;41577;47.470;19.080;2023-11-22T00:03:11;99948.13;;;4.27;100.00
53868;BME280;41577;47.470;19.080;2023-11-22T00:03:22;99947.13;;;4.28;100.00
53868;BME280;41577;47.470;19.080;2023-11-22T00:03:34;99959.50;;;4.28;100.00
53868;BME280;41577;47.470;19.080;2023-11-22T00:03:46;99944.47;;;4.28;100.00
53868;BME280;41577;47.470;19.080;2023-11-22T00:03:58;99950.59;;;4.29;100.00
53868;BME280;41577;47.470;19.080;2023-11-22T00:04:10;99946.31;;;4.28;100.00
53868;BME280;41577;47.470;19.080;2023-11-22T00:04:21;99955.06;;;4.28;100.00
53868;BME280;41577;47.470;19.080;2023-11-22T00:04:33;99948.13;;;4.27;100.00
53868;BME280;41577;47.470;19.080;2023-11-22T00:04:45;99951.59;;;4.28;100.00
53868;BME280;41577;47.470;19.080;2023-11-22T00:04:57;99943.66;;;4.28;100.00
53868;BME280;41577;47.470;19.080;2023-11-22T00:05:08;99949.75;;;4.28;100.00
53868;BME280;41577;47.470;19.080;2023-11-22T00:05:20;99953.41;;;4.27;100.00
53868;BME280;41577;47.470;19.080;2023-11-22T00:05:32;99948.94;;;4.28;100.00
53868;BME280;41577;47.470;19.080;2023-11-22T00:05:44;99944.47;;;4.28;100.00
53868;BME280;41577;47.470;19.080;2023-11-22T00:05:55;99948.94;;;4.28;100.00
53868;BME280;41577;47.470;19.080;2023-11-22T00:06:07;99947.31;;;4.27;100.00
53868;BME280;41577;47.470;19.080;2023-11-22T00:06:19;99950.75;;;4.27;100.00
53868;BME280;41577;47.470;19.080;2023-11-22T00:06:30;99955.88;;;4.29;100.00
53868;BME280;41577;47.470;19.080;2023-11-22T00:06:42;99948.94;;;4.28;100.00
53868;BME280;41577;47.470;19.080;2023-11-22T00:06:54;99951.59;;;4.28;100.00
53868;BME280;41577;47.470;19.080;2023-11-22T00:07:05;99948.94;;;4.28;100.00
53868;BME280;41577;47.470;19.080;2023-11-22T00:07:17;99949.09;;;4.26;100.00
53868;BME280;41577;47.470;19.080;2023-11-22T00:07:29;99952.59;;;4.27;100.00
53868;BME280;41577;47.470;19.080;2023-11-22T00:07:41;99956.19;;;4.26;100.00
53868;BME280;41577;47.470;19.080;2023-11-22T00:07:52;99951.72;;;4.26;100.00
53868;BME280;41577;47.470;19.080;2023-11-22T00:08:04;99953.56;;;4.26;100.00
53868;BME280;41577;47.470;19.080;2023-11-22T00:08:16;99953.56;;;4.26;100.00
53868;BME280;41577;47.470;19.080;2023-11-22T00:08:28;99951.72;;;4.26;100.00
53868;BME280;41577;47.470;19.080;2023-11-22T00:08:40;99951.72;;;4.26;100.00
53868;BME280;41577;47.470;19.080;2023-11-22T00:08:51;99953.69;;;4.24;100.00
53868;BME280;41577;47.470;19.080;2023-11-22T00:09:03;99951.72;;;4.26;100.00
53868;BME280;41577;47.470;19.080;2023-11-22T00:09:15;99948.25;;;4.26;100.00
53868;BME280;41577;47.470;19.080;2023-11-22T00:09:27;99953.41;;;4.27;100.00
53868;BME280;41577;47.470;19.080;2023-11-22T00:09:38;99953.56;;;4.26;100.00
53868;BME280;41577;47.470;19.080;2023-11-22T00:09:50;99958.03;;;4.25;100.00
53868;BME280;41577;47.470;19.080;2023-11-22T00:10:02;99950.09;;;4.25;100.00
53868;BME280;41577;47.470;19.080;2023-11-22T00:10:14;99958.03;;;4.25;100.00
53868;BME280;41577;47.470;19.080;2023-11-22T00:10:27;99957.19;;;4.25;100.00
53868;BME280;41577;47.470;19.080;2023-11-22T00:10:39;99951.91;;;4.25;100.00
53868;BME280;41577;47.470;19.080;2023-11-22T00:10:51;99961.63;;;4.24;100.00
53868;BME280;41577;47.470;19.080;2023-11-22T00:11:03;99957.03;;;4.26;100.00
53868;BME280;41577;47.470;19.080;2023-11-22T00:11:14;99954.38;;;4.26;100.00
53868;BME280;41577;47.470;19.080;2023-11-22T00:11:26;99956.34;;;4.24;100.00
53868;BME280;41577;47.470;19.080;2023-11-22T00:11:38;99962.47;;;4.25;100.00
53868;BME280;41577;47.470;19.080;2023-11-22T00:11:50;99956.19;;;4.26;100.00
53868;BME280;41577;47.470;19.080;2023-11-22T00:12:02;99959.00;;;4.24;100.00
53868;BME280;41577;47.470;19.080;2023-11-22T00:12:13;99969.56;;;4.24;100.00
53868;BME280;41577;47.470;19.080;2023-11-22T00:12:25;99959.00;;;4.24;100.00
53868;BME280;41577;47.470;19.080;2023-11-22T00:12:37;99960.81;;;4.24;100.00
53868;BME280;41577;47.470;19.080;2023-11-22T00:12:48;99965.13;;;4.25;100.00
53868;BME280;41577;47.470;19.080;2023-11-22T00:13:00;99963.44;;;4.24;100.00
53868;BME280;41577;47.470;19.080;2023-11-22T00:13:12;99958.16;;;4.24;100.00
53868;BME280;41577;47.470;19.080;2023-11-22T00:13:24;99957.34;;;4.23;100.00
53868;BME280;41577;47.470;19.080;2023-11-22T00:13:35;99958.16;;;4.24;100.00
53868;BME280;41577;47.470;19.080;2023-11-22T00:13:47;99960.81;;;4.24;100.00
53868;BME280;41577;47.470;19.080;2023-11-22T00:13:59;99960.81;;;4.24;100.00
53868;BME280;41577;47.470;19.080;2023-11-22T00:14:11;99959.97;;;4.23;100.00
53868;BME280;41577;47.470;19.080;2023-11-22T00:14:22;99961.63;;;4.24;100.00
53868;BME280;41577;47.470;19.080;2023-11-22T00:14:34;99959.16;;;4.23;100.00
53868;BME280;41577;47.470;19.080;2023-11-22T00:14:46;99965.28;;;4.23;100.00
53868;BME280;41577;47.470;19.080;2023-11-22T00:14:58;99959.97;;;4.23;100.00
53868;BME280;41577;47.470;19.080;2023-11-22T00:15:10;99968.72;;;4.24;100.00
53868;BME280;41577;47.470;19.080;2023-11-22T00:15:22;99959.97;;;4.23;100.00
53868;BME280;41577;47.470;19.080;2023-11-22T00:15:34;99965.28;;;4.23;100.00
53868;BME280;41577;47.470;19.080;2023-11-22T00:15:45;99967.09;;;4.23;100.00
53868;BME280;41577;47.470;19.080;2023-11-22T00:15:57;99961.81;;;4.23;100.00
53868;BME280;41577;47.470;19.080;2023-11-22T00:16:09;99962.63;;;4.23;100.00
53868;BME280;41577;47.470;19.080;2023-11-22T00:16:21;99966.28;;;4.22;100.00
53868;BME280;41577;47.470;19.080;2023-11-22T00:16:33;99961.94;;;4.21;100.00
53868;BME280;41577;47.470;19.080;2023-11-22T00:16:45;99964.44;;;4.23;100.00
53868;BME280;41577;47.470;19.080;2023-11-22T00:16:56;99963.63;;;4.22;100.00
53868;BME280;41577;47.470;19.080;2023-11-22T00:17:08;99960.97;;;4.22;100.00
53868;BME280;41577;47.470;19.080;2023-11-22T00:17:20;99965.41;;;4.22;100.00
53868;BME280;41577;47.470;19.080;2023-11-22T00:17:32;99971.56;;;4.22;100.00
53868;BME280;41577;47.470;19.080;2023-11-22T00:17:44;99967.09;;;4.23;100.00
53868;BME280;41577;47.470;19.080;2023-11-22T00:17:56;99974.19;;;4.22;100.00
53868;BME280;41577;47.470;19.080;2023-11-22T00:18:08;99963.78;;;4.21;100.00
53868;BME280;41577;47.470;19.080;2023-11-22T00:18:20;99967.09;;;4.23;100.00
53868;BME280;41577;47.470;19.080;2023-11-22T00:18:31;99968.06;;;4.22;100.00
53868;BME280;41577;47.470;19.080;2023-11-22T00:18:43;99964.59;;;4.21;100.00
53868;BME280;41577;47.470;19.080;2023-11-22T00:18:55;99972.53;;;4.21;100.00
53868;BME280;41577;47.470;19.080;2023-11-22T00:19:07;99969.88;;;4.21;100.00
53868;BME280;41577;47.470;19.080;2023-11-22T00:19:19;99969.88;;;4.21;100.00
53868;BME280;41577;47.470;19.080;2023-11-22T00:19:30;99969.88;;;4.21;100.00
53868;BME280;41577;47.470;19.080;2023-11-22T00:19:42;99970.88;;;4.20;100.00
53868;BME280;41577;47.470;19.080;2023-11-22T00:19:54;99968.22;;;4.20;100.00
53868;BME280;41577;47.470;19.080;2023-11-22T00:20:07;99969.88;;;4.21;100.00
53868;BME280;41577;47.470;19.080;2023-11-22T00:20:19;99970.03;;;4.19;100.00
53868;BME280;41577;47.470;19.080;2023-11-22T00:20:31;99964.59;;;4.21;100.00
53868;BME280;41577;47.470;19.080;2023-11-22T00:20:43;99967.22;;;4.21;100.00
53868;BME280;41577;47.470;19.080;2023-11-22T00:20:54;99971.03;;;4.18;100.00
53868;BME280;41577;47.470;19.080;2023-11-22T00:21:06;99969.06;;;4.21;100.00
53868;BME280;41577;47.470;19.080;2023-11-22T00:21:18;99970.88;;;4.20;100.00
53868;BME280;41577;47.470;19.080;2023-11-22T00:21:30;99970.03;;;4.19;100.00
53868;BME280;41577;47.470;19.080;2023-11-22T00:21:41;99975.31;;;4.19;100.00
53868;BME280;41577;47.470;19.080;2023-11-22T00:21:53;99977.94;;;4.19;100.00
53868;BME280;41577;47.470;19.080;2023-11-22T00:22:05;99974.34;;;4.21;100.00
53868;BME280;41577;47.470;19.080;2023-11-22T00:22:17;99972.66;;;4.19;100.00
53868;BME280;41577;47.470;19.080;2023-11-22T00:22:28;99973.53;;;4.20;100.00
53868;BME280;41577;47.470;19.080;2023-11-22T00:22:40;99975.31;;;4.19;100.00
53868;BME280;41577;47.470;19.080;2023-11-22T00:22:52;99977.13;;;4.19;100.00
53868;BME280;41577;47.470;19.080;2023-11-22T00:23:04;99976.31;;;4.18;100.00
53868;BME280;41577;47.470;19.080;2023-11-22T00:23:16;99981.59;;;4.18;100.00
53868;BME280;41577;47.470;19.080;2023-11-22T00:23:27;99984.38;;;4.17;100.00
53868;BME280;41577;47.470;19.080;2023-11-22T00:23:39;99977.13;;;4.19;100.00
53868;BME280;41577;47.470;19.080;2023-11-22T00:23:51;99983.41;;;4.18;100.00
53868;BME280;41577;47.470;19.080;2023-11-22T00:24:03;99975.50;;;4.18;100.00
53868;BME280;41577;47.470;19.080;2023-11-22T00:24:15;99977.44;;;4.16;100.00
53868;BME280;41577;47.470;19.080;2023-11-22T00:24:26;99973.81;;;4.17;100.00
53868;BME280;41577;47.470;19.080;2023-11-22T00:24:38;99984.38;;;4.17;100.00
53868;BME280;41577;47.470;19.080;2023-11-22T00:24:50;99980.09;;;4.16;100.00
53868;BME280;41577;47.470;19.080;2023-11-22T00:25:02;99970.50;;;4.15;100.00
53868;BME280;41577;47.470;19.080;2023-11-22T00:25:15;99984.56;;;4.15;100.00
53868;BME280;41577;47.470;19.080;2023-11-22T00:25:28;99977.44;;;4.16;100.00
53868;BME280;41577;47.470;19.080;2023-11-22T00:25:39;99975.63;;;4.16;100.00
53868;BME280;41577;47.470;19.080;2023-11-22T00:25:51;99981.91;;;4.15;100.00
53868;BME280;41577;47.470;19.080;2023-11-22T00:26:03;99981.06;;;4.15;100.00
53868;BME280;41577;47.470;19.080;2023-11-22T00:26:15;99979.28;;;4.15;100.00
53868;BME280;41577;47.470;19.080;2023-11-22T00:26:35;99978.41;;;4.15;100.00
53868;BME280;41577;47.470;19.080;2023-11-22T00:26:47;99974.94;;;4.14;100.00
53868;BME280;41577;47.470;19.080;2023-11-22T00:26:59;99979.41;;;4.14;100.00
53868;BME280;41577;47.470;19.080;2023-11-22T00:27:10;99977.59;;;4.14;100.00
53868;BME280;41577;47.470;19.080;2023-11-22T00:27:22;99979.41;;;4.14;100.00
53868;BME280;41577;47.470;19.080;2023-11-22T00:27:34;99980.25;;;4.14;100.00
53868;BME280;41577;47.470;19.080;2023-11-22T00:27:46;99979.41;;;4.14;100.00
53868;BME280;41577;47.470;19.080;2023-11-22T00:27:57;99988.16;;;4.14;100.00
53868;BME280;41577;47.470;19.080;2023-11-22T00:28:09;99981.06;;;4.15;100.00
53868;BME280;41577;47.470;19.080;2023-11-22T00:28:21;99979.56;;;4.12;100.00
53868;BME280;41577;47.470;19.080;2023-11-22T00:28:33;99989.97;;;4.14;100.00
53868;BME280;41577;47.470;19.080;2023-11-22T00:28:45;99981.25;;;4.13;100.00
53868;BME280;41577;47.470;19.080;2023-11-22T00:28:57;99983.06;;;4.13;100.00
53868;BME280;41577;47.470;19.080;2023-11-22T00:29:09;99978.59;;;4.13;100.00
53868;BME280;41577;47.470;19.080;2023-11-22T00:29:20;99983.88;;;4.13;100.00
53868;BME280;41577;47.470;19.080;2023-11-22T00:29:32;99981.25;;;4.13;100.00
53868;BME280;41577;47.470;19.080;2023-11-22T00:29:44;99978.75;;;4.12;100.00
53868;BME280;41577;47.470;19.080;2023-11-22T00:29:56;99983.06;;;4.13;100.00
53868;BME280;41577;47.470;19.080;2023-11-22T00:30:09;99981.38;;;4.12;100.00
53868;BME280;41577;47.470;19.080;2023-11-22T00:30:21;99982.19;;;4.12;100.00
53868;BME280;41577;47.470;19.080;2023-11-22T00:30:33;99982.19;;;4.12;100.00
53868;BME280;41577;47.470;19.080;2023-11-22T00:30:45;99979.75;;;4.11;100.00
53868;BME280;41577;47.470;19.080;2023-11-22T00:30:57;99980.56;;;4.11;100.00
53868;BME280;41577;47.470;19.080;2023-11-22T00:31:09;99987.66;;;4.11;100.00
53868;BME280;41577;47.470;19.080;2023-11-22T00:31:21;99978.75;;;4.12;100.00
53868;BME280;41577;47.470;19.080;2023-11-22T00:31:33;99990.31;;;4.11;100.00
53868;BME280;41577;47.470;19.080;2023-11-22T00:31:45;99988.63;;;4.10;100.00
53868;BME280;41577;47.470;19.080;2023-11-22T00:31:57;99981.53;;;4.10;100.00
53868;BME280;41577;47.470;19.080;2023-11-22T00:32:09;99985.03;;;4.11;100.00
53868;BME280;41577;47.470;19.080;2023-11-22T00:32:21;99980.69;;;4.10;100.00
53868;BME280;41577;47.470;19.080;2023-11-22T00:32:33;99989.44;;;4.10;100.00
53868;BME280;41577;47.470;19.080;2023-11-22T00:32:45;99985.16;;;4.09;100.00
53868;BME280;41577;47.470;19.080;2023-11-22T00:32:57;99985.16;;;4.09;100.00
53868;BME280;41577;47.470;19.080;2023-11-22T00:33:08;99982.66;;;4.08;100.00
53868;BME280;41577;47.470;19.080;2023-11-22T00:33:20;99987.81;;;4.09;100.00
53868;BME280;41577;47.470;19.080;2023-11-22T00:33:32;99981.69;;;4.09;100.00
53868;BME280;41577;47.470;19.080;2023-11-22T00:33:44;99985.31;;;4.08;100.00
53868;BME280;41577;47.470;19.080;2023-11-22T00:33:55;99984.47;;;4.07;100.00
53868;BME280;41577;47.470;19.080;2023-11-22T00:34:07;99985.31;;;4.08;100.00
53868;BME280;41577;47.470;19.080;2023-11-22T00:34:19;99985.31;;;4.08;100.00
53868;BME280;41577;47.470;19.080;2023-11-22T00:34:32;99987.94;;;4.08;100.00
53868;BME280;41577;47.470;19.080;2023-11-22T00:34:43;99985.47;;;4.06;100.00
53868;BME280;41577;47.470;19.080;2023-11-22T00:34:55;99989.78;;;4.07;100.00
53868;BME280;41577;47.470;19.080;2023-11-22T00:35:07;99986.31;;;4.07;100.00
53868;BME280;41577;47.470;19.080;2023-11-22T00:35:20;99991.59;;;4.07;100.00
53868;BME280;41577;47.470;19.080;2023-11-22T00:35:32;99987.28;;;4.06;100.00
53868;BME280;41577;47.470;19.080;2023-11-22T00:35:44;99979.34;;;4.06;100.00
53868;BME280;41577;47.470;19.080;2023-11-22T00:35:55;99982.00;;;4.06;100.00
53868;BME280;41577;47.470;19.080;2023-11-22T00:36:07;99982.84;;;4.06;100.00
53868;BME280;41577;47.470;19.080;2023-11-22T00:36:19;99986.44;;;4.05;100.00
53868;BME280;41577;47.470;19.080;2023-11-22T00:36:30;99985.63;;;4.05;100.00
53868;BME280;41577;47.470;19.080;2023-11-22T00:36:42;99984.63;;;4.06;100.00
53868;BME280;41577;47.470;19.080;2023-11-22T00:36:54;99981.31;;;4.04;100.00
53868;BME280;41577;47.470;19.080;2023-11-22T00:37:06;99978.03;;;4.02;100.00
53868;BME280;41577;47.470;19.080;2023-11-22T00:37:18;99982.16;;;4.04;100.00
53868;BME280;41577;47.470;19.080;2023-11-22T00:37:30;99983.94;;;4.04;100.00
53868;BME280;41577;47.470;19.080;2023-11-22T00:37:41;99983.31;;;4.02;100.00
53868;BME280;41577;47.470;19.080;2023-11-22T00:37:53;99979.81;;;4.01;100.00
53868;BME280;41577;47.470;19.080;2023-11-22T00:38:05;99975.38;;;4.02;100.00
53868;BME280;41577;47.470;19.080;2023-11-22T00:38:17;99975.38;;;4.02;100.00
53868;BME280;41577;47.470;19.080;2023-11-22T00:38:29;99977.16;;;4.01;100.00
53868;BME280;41577;47.470;19.080;2023-11-22T00:38:40;99976.34;;;4.01;100.00
53868;BME280;41577;47.470;19.080;2023-11-22T00:38:52;99973.69;;;4.01;100.00
53868;BME280;41577;47.470;19.080;2023-11-22T00:39:04;99973.69;;;4.01;100.00
53868;BME280;41577;47.470;19.080;2023-11-22T00:39:15;99973.69;;;4.01;100.00
53868;BME280;41577;47.470;19.080;2023-11-22T00:39:27;99976.50;;;3.99;100.00
53868;BME280;41577;47.470;19.080;2023-11-22T00:39:39;99977.34;;;4.00;100.00
53868;BME280;41577;47.470;19.080;2023-11-22T00:39:51;99973.84;;;3.99;100.00
53868;BME280;41577;47.470;19.080;2023-11-22T00:40:03;99974.69;;;4.00;100.00
53868;BME280;41577;47.470;19.080;2023-11-22T00:40:16;99970.56;;;3.97;100.00
53868;BME280;41577;47.470;19.080;2023-11-22T00:40:29;99966.91;;;3.98;100.00
53868;BME280;41577;47.470;19.080;2023-11-22T00:40:40;99968.72;;;3.97;100.00
53868;BME280;41577;47.470;19.080;2023-11-22T00:40:52;99976.66;;;3.97;100.00
53868;BME280;41577;47.470;19.080;2023-11-22T00:41:04;99972.19;;;3.98;100.00
53868;BME280;41577;47.470;19.080;2023-11-22T00:41:16;99973.03;;;3.98;100.00
53868;BME280;41577;47.470;19.080;2023-11-22T00:41:30;99972.19;;;3.98;100.00
53868;BME280;41577;47.470;19.080;2023-11-22T00:41:42;99969.69;;;3.96;100.00
53868;BME280;41577;47.470;19.080;2023-11-22T00:41:54;99974.03;;;3.97;100.00
53868;BME280;41577;47.470;19.080;2023-11-22T00:42:06;99970.69;;;3.95;100.00
53868;BME280;41577;47.470;19.080;2023-11-22T00:42:18;99975.84;;;3.97;100.00
53868;BME280;41577;47.470;19.080;2023-11-22T00:42:29;99968.88;;;3.96;100.00
53868;BME280;41577;47.470;19.080;2023-11-22T00:42:41;99968.88;;;3.96;100.00
53868;BME280;41577;47.470;19.080;2023-11-22T00:42:53;99973.34;;;3.95;100.00
53868;BME280;41577;47.470;19.080;2023-11-22T00:43:05;99970.69;;;3.95;100.00
53868;BME280;41577;47.470;19.080;2023-11-22T00:43:16;99974.31;;;3.94;100.00
53868;BME280;41577;47.470;19.080;2023-11-22T00:43:28;99967.22;;;3.95;100.00
53868;BME280;41577;47.470;19.080;2023-11-22T00:43:40;99974.97;;;3.96;100.00
53868;BME280;41577;47.470;19.080;2023-11-22T00:43:51;99968.06;;;3.95;100.00
53868;BME280;41577;47.470;19.080;2023-11-22T00:44:04;99969.88;;;3.95;100.00
53868;BME280;41577;47.470;19.080;2023-11-22T00:44:16;99973.34;;;3.95;100.00
53868;BME280;41577;47.470;19.080;2023-11-22T00:44:27;99975.16;;;3.95;100.00
53868;BME280;41577;47.470;19.080;2023-11-22T00:44:39;99969.03;;;3.94;100.00
53868;BME280;41577;47.470;19.080;2023-11-22T00:44:51;99977.81;;;3.95;100.00
53868;BME280;41577;47.470;19.080;2023-11-22T00:45:03;99969.88;;;3.95;100.00
53868;BME280;41577;47.470;19.080;2023-11-22T00:45:15;99972.53;;;3.95;100.00
53868;BME280;41577;47.470;19.080;2023-11-22T00:45:27;99976.94;;;3.94;100.00
53868;BME280;41577;47.470;19.080;2023-11-22T00:45:39;99974.31;;;3.94;100.00
53868;BME280;41577;47.470;19.080;2023-11-22T00:45:50;99973.47;;;3.94;100.00
53868;BME280;41577;47.470;19.080;2023-11-22T00:46:03;99975.16;;;3.95;100.00
53868;BME280;41577;47.470;19.080;2023-11-22T00:46:15;99975.16;;;3.95;100.00
53868;BME280;41577;47.470;19.080;2023-11-22T00:46:26;99969.03;;;3.94;100.00
53868;BME280;41577;47.470;19.080;2023-11-22T00:46:38;99975.16;;;3.95;100.00
53868;BME280;41577;47.470;19.080;2023-11-22T00:46:50;99971.66;;;3.94;100.00
53868;BME280;41577;47.470;19.080;2023-11-22T00:47:02;99979.59;;;3.94;100.00
53868;BME280;41577;47.470;19.080;2023-11-22T00:47:14;99975.16;;;3.95;100.00
53868;BME280;41577;47.470;19.080;2023-11-22T00:47:26;99980.44;;;3.95;100.00
53868;BME280;41577;47.470;19.080;2023-11-22T00:47:38;99976.13;;;3.94;100.00
53868;BME280;41577;47.470;19.080;2023-11-22T00:47:51;99968.19;;;3.94;100.00
53868;BME280;41577;47.470;19.080;2023-11-22T00:48:03;99970.84;;;3.94;100.00
53868;BME280;41577;47.470;19.080;2023-11-22T00:48:15;99974.31;;;3.94;100.00
53868;BME280;41577;47.470;19.080;2023-11-22T00:48:26;99978.78;;;3.94;100.00
53868;BME280;41577;47.470;19.080;2023-11-22T00:48:38;99975.44;;;3.92;100.00
53868;BME280;41577;47.470;19.080;2023-11-22T00:48:50;99971.00;;;3.92;100.00
53868;BME280;41577;47.470;19.080;2023-11-22T00:49:02;99977.13;;;3.93;100.00
53868;BME280;41577;47.470;19.080;2023-11-22T00:49:14;99978.78;;;3.94;100.00
53868;BME280;41577;47.470;19.080;2023-11-22T00:49:25;99977.94;;;3.93;100.00
53868;BME280;41577;47.470;19.080;2023-11-22T00:49:37;99980.59;;;3.93;100.00
53868;BME280;41577;47.470;19.080;2023-11-22T00:49:49;99976.13;;;3.94;100.00
53868;BME280;41577;47.470;19.080;2023-11-22T00:50:01;99980.72;;;3.92;100.00
53868;BME280;41577;47.470;19.080;2023-11-22T00:50:13;99982.41;;;3.93;100.00
53868;BME280;41577;47.470;19.080;2023-11-22T00:50:24;99985.03;;;3.93;100.00
53868;BME280;41577;47.470;19.080;2023-11-22T00:50:38;99979.75;;;3.93;100.00
53868;BME280;41577;47.470;19.080;2023-11-22T00:50:49;99976.13;;;3.94;100.00
53868;BME280;41577;47.470;19.080;2023-11-22T00:51:01;99984.88;;;3.94;100.00
53868;BME280;41577;47.470;19.080;2023-11-22T00:51:13;99978.78;;;3.94;100.00
53868;BME280;41577;47.470;19.080;2023-11-22T00:51:25;99978.94;;;3.92;100.00
53868;BME280;41577;47.470;19.080;2023-11-22T00:51:36;99977.94;;;3.93;100.00
53868;BME280;41577;47.470;19.080;2023-11-22T00:51:48;99983.22;;;3.93;100.00
53868;BME280;41577;47.470;19.080;2023-11-22T00:52:00;99975.31;;;3.93;100.00
53868;BME280;41577;47.470;19.080;2023-11-22T00:52:14;99978.78;;;3.94;100.00
53868;BME280;41577;47.470;19.080;2023-11-22T00:52:26;99978.78;;;3.94;100.00
53868;BME280;41577;47.470;19.080;2023-11-22T00:52:37;99982.22;;;3.94;100.00
53868;BME280;41577;47.470;19.080;2023-11-22T00:52:49;99973.47;;;3.94;100.00
53868;BME280;41577;47.470;19.080;2023-11-22T00:53:01;99979.59;;;3.94;100.00
53868;BME280;41577;47.470;19.080;2023-11-22T00:53:12;99979.59;;;3.94;100.00
53868;BME280;41577;47.470;19.080;2023-11-22T00:53:24;99983.09;;;3.95;100.00
53868;BME280;41577;47.470;19.080;2023-11-22T00:53:36;99974.47;;;3.93;100.00
53868;BME280;41577;47.470;19.080;2023-11-22T00:53:48;99979.59;;;3.94;100.00
53868;BME280;41577;47.470;19.080;2023-11-22T00:54:00;99969.88;;;3.95;100.00
53868;BME280;41577;47.470;19.080;2023-11-22T00:54:11;99978.63;;;3.95;100.00
53868;BME280;41577;47.470;19.080;2023-11-22T00:54:23;99978.63;;;3.95;100.00
53868;BME280;41577;47.470;19.080;2023-11-22T00:54:35;99974.16;;;3.96;100.00
53868;BME280;41577;47.470;19.080;2023-11-22T00:54:47;99970.69;;;3.95;100.00
53868;BME280;41577;47.470;19.080;2023-11-22T00:54:58;99973.34;;;3.95;100.00
53868;BME280;41577;47.470;19.080;2023-11-22T00:55:10;99975.16;;;3.95;100.00
53868;BME280;41577;47.470;19.080;2023-11-22T00:55:22;99970.69;;;3.95;100.00
53868;BME280;41577;47.470;19.080;2023-11-22T00:55:35;99975.97;;;3.95;100.00
53868;BME280;41577;47.470;19.080;2023-11-22T00:55:47;99977.81;;;3.95;100.00
53868;BME280;41577;47.470;19.080;2023-11-22T00:55:59;99969.88;;;3.95;100.00
53868;BME280;41577;47.470;19.080;2023-11-22T00:56:11;99975.16;;;3.95;100.00
53868;BME280;41577;47.470;19.080;2023-11-22T00:56:23;99971.66;;;3.94;100.00
53868;BME280;41577;47.470;19.080;2023-11-22T00:56:34;99969.03;;;3.94;100.00
53868;BME280;41577;47.470;19.080;2023-11-22T00:56:46;99969.19;;;3.93;100.00
53868;BME280;41577;47.470;19.080;2023-11-22T00:56:58;99974.31;;;3.94;100.00
53868;BME280;41577;47.470;19.080;2023-11-22T00:57:10;99974.31;;;3.94;100.00
53868;BME280;41577;47.470;19.080;2023-11-22T00:57:21;99978.63;;;3.95;100.00
53868;BME280;41577;47.470;19.080;2023-11-22T00:57:33;99970.03;;;3.93;100.00
53868;BME280;41577;47.470;19.080;2023-11-22T00:57:45;99972.53;;;3.95;100.00
53868;BME280;41577;47.470;19.080;2023-11-22T00:57:57;99969.88;;;3.95;100.00
53868;BME280;41577;47.470;19.080;2023-11-22T00:58:08;99974.31;;;3.94;100.00
53868;BME280;41577;47.470;19.080;2023-11-22T00:58:20;99973.47;;;3.94;100.00
53868;BME280;41577;47.470;19.080;2023-11-22T00:58:32;99971.66;;;3.94;100.00
53868;BME280;41577;47.470;19.080;2023-11-22T00:58:44;99971.66;;;3.94;100.00
53868;BME280;41577;47.470;19.080;2023-11-22T00:58:55;99970.03;;;3.93;100.00
53868;BME280;41577;47.470;19.080;2023-11-22T00:59:07;99976.13;;;3.94;100.00
53868;BME280;41577;47.470;19.080;2023-11-22T00:59:19;99973.47;;;3.94;100.00
53868;BME280;41577;47.470;19.080;2023-11-22T00:59:31;99970.16;;;3.92;100.00
53868;BME280;41577;47.470;19.080;2023-11-22T00:59:42;99974.47;;;3.93;100.00
53868;BME280;41577;47.470;19.080;2023-11-22T00:59:54;99976.13;;;3.94;100.00
53868;BME280;41577;47.470;19.080;2023-11-22T01:00:07;99976.13;;;3.94;100.00
53868;BME280;41577;47.470;19.080;2023-11-22T01:00:18;99975.31;;;3.93;100.00
53868;BME280;41577;47.470;19.080;2023-11-22T01:00:30;99972.66;;;3.93;100.00
53868;BME280;41577;47.470;19.080;2023-11-22T01:00:42;99971.84;;;3.93;100.00
53868;BME280;41577;47.470;19.080;2023-11-22T01:00:53;99970.84;;;3.94;100.00
53868;BME280;41577;47.470;19.080;2023-11-22T01:01:06;99970.84;;;3.94;100.00
53868;BME280;41577;47.470;19.080;2023-11-22T01:01:17;99972.66;;;3.93;100.00
53868;BME280;41577;47.470;19.080;2023-11-22T01:01:29;99968.38;;;3.92;100.00
53868;BME280;41577;47.470;19.080;2023-11-22T01:01:41;99977.94;;;3.93;100.00
53868;BME280;41577;47.470;19.080;2023-11-22T01:01:53;99967.38;;;3.93;100.00
53868;BME280;41577;47.470;19.080;2023-11-22T01:02:04;99973.47;;;3.94;100.00
53868;BME280;41577;47.470;19.080;2023-11-22T01:02:16;99967.38;;;3.93;100.00